Terminal Aerodrome Forecast
Issued by NWS

Home | Current Version | Previous Version | Text Only | Print | Product List | Glossary On
Versions: 1 2 3 4 5 6 7 8
000
FTUS46 KSEW 261700
TAFPAE
TAF
KPAE 261721Z 2618/2718 14003KT P6SM OVC005
      TEMPO 2618/2620 1/2SM FG OVC002
     FM262000 14003KT P6SM OVC007
     FM262200 15003KT P6SM SCT010 BKN020 OVC050
     FM270600 15004KT P6SM OVC010
     FM271200 18009KT P6SM -RA OVC007=

USA.gov is the U.S. government's official web portal to all federal, state and local government web resources and services.